Time;durP1;ratioP1;P1;durP2;ratioP2;P2;SDS_P1;SDS_P2;PMS_P1;PMS_P2;Temp;Humidity;BMP_temperature;BMP_pressure;BME280_temperature;BME280_humidity;BME280_pressure;Samples;Min_cycle;Max_cycle;Signal;HPM_P1;HPM_P2
2021/12/03 00:01:03;;;;;;;0.30;0.30;;;2.90;99.90;;;;;;4926477;29;20524;-78
2021/12/03 00:03:29;;;;;;;0.20;0.20;;;2.90;99.90;;;;;;4926541;29;20056;-78
2021/12/03 00:05:56;;;;;;;0.20;0.20;;;2.90;99.90;;;;;;4926295;29;20515;-78
2021/12/03 00:08:23;;;;;;;10.30;0.53;;;2.90;99.90;;;;;;4926668;29;20424;-78
2021/12/03 00:10:54;;;;;;;1.00;0.77;;;2.90;99.90;;;;;;4926165;29;20051;-78
2021/12/03 00:13:20;;;;;;;6.03;0.93;;;2.90;99.90;;;;;;4909600;29;20130;-78
2021/12/03 00:15:47;;;;;;;0.10;0.10;;;2.90;99.90;;;;;;4910281;29;20060;-78
2021/12/03 00:18:12;;;;;;;0.20;0.20;;;2.90;99.90;;;;;;4926050;29;20051;-78
2021/12/03 00:20:39;;;;;;;0.20;0.20;;;3.00;99.90;;;;;;4930235;29;20067;-78
2021/12/03 00:23:05;;;;;;;0.60;0.60;;;2.90;99.90;;;;;;4912730;29;20040;-78
2021/12/03 00:25:32;;;;;;;0.40;0.40;;;2.90;99.90;;;;;;4912577;29;20085;-78
2021/12/03 00:27:58;;;;;;;0.40;0.40;;;2.90;99.90;;;;;;4930135;29;20071;-78
2021/12/03 00:30:25;;;;;;;0.30;0.30;;;2.90;99.90;;;;;;4947994;29;20496;-78
2021/12/03 00:32:51;;;;;;;0.40;0.40;;;2.90;99.90;;;;;;4949521;28;20047;-79
2021/12/03 00:35:18;;;;;;;0.60;0.30;;;2.90;99.90;;;;;;4949527;29;20043;-78
2021/12/03 00:37:44;;;;;;;0.17;0.17;;;3.00;99.90;;;;;;4949084;28;20826;-78
2021/12/03 00:40:13;;;;;;;0.10;0.10;;;2.90;99.90;;;;;;4948588;29;20043;-78
2021/12/03 00:42:40;;;;;;;0.77;0.77;;;2.90;99.90;;;;;;4923374;29;20035;-78
2021/12/03 00:45:08;;;;;;;0.10;0.10;;;2.90;99.90;;;;;;4948705;28;20053;-78
2021/12/03 00:47:33;;;;;;;0.23;0.20;;;2.90;99.90;;;;;;4948872;28;20039;-78
2021/12/03 00:49:59;;;;;;;0.30;0.30;;;2.90;99.90;;;;;;4948809;29;20126;-78
2021/12/03 00:52:25;;;;;;;0.63;0.40;;;2.90;99.90;;;;;;4949090;28;20519;-78
2021/12/03 00:54:50;;;;;;;0.07;0.07;;;2.90;99.90;;;;;;4948755;28;20068;-79
2021/12/03 00:57:16;;;;;;;0.20;0.20;;;2.90;99.90;;;;;;4948204;29;20094;-78
2021/12/03 00:59:42;;;;;;;0.10;0.10;;;2.90;99.90;;;;;;4948805;29;20423;-78
2021/12/03 01:02:08;;;;;;;0.20;0.20;;;3.00;99.90;;;;;;4948369;29;20089;-78
2021/12/03 01:04:34;;;;;;;0.10;0.10;;;3.00;99.90;;;;;;4947605;29;20039;-78
2021/12/03 01:06:59;;;;;;;0.93;0.63;;;3.00;99.90;;;;;;4948440;28;20094;-78
2021/12/03 01:09:25;;;;;;;0.97;0.77;;;3.00;99.90;;;;;;4931537;29;20043;-78
2021/12/03 01:11:51;;;;;;;0.57;0.57;;;3.00;99.90;;;;;;4930442;29;20070;-78
2021/12/03 01:14:18;;;;;;;1.13;1.13;;;3.00;99.90;;;;;;4946709;29;20043;-78
2021/12/03 01:16:44;;;;;;;0.70;0.70;;;3.00;99.90;;;;;;4931265;29;20052;-78
2021/12/03 01:19:10;;;;;;;0.00;0.00;;;3.00;99.90;;;;;;4948332;29;20043;-78
2021/12/03 01:21:37;;;;;;;0.60;0.60;;;3.00;99.90;;;;;;4931043;29;20059;-78
2021/12/03 01:24:04;;;;;;;0.10;0.10;;;3.00;99.90;;;;;;4948208;29;20058;-78
2021/12/03 01:26:30;;;;;;;0.10;0.10;;;3.00;99.90;;;;;;4961649;28;20051;-78
2021/12/03 01:28:56;;;;;;;7.83;0.83;;;3.00;99.90;;;;;;4939785;29;20131;-78
2021/12/03 01:31:22;;;;;;;1.53;0.57;;;3.00;99.90;;;;;;4928772;29;20118;-78
2021/12/03 01:33:48;;;;;;;1.83;0.60;;;3.10;99.90;;;;;;4911626;29;20044;-78
2021/12/03 01:36:14;;;;;;;0.70;0.70;;;3.00;99.90;;;;;;4911462;29;20548;-78
2021/12/03 01:38:40;;;;;;;0.20;0.20;;;3.10;99.90;;;;;;4929175;29;20047;-78
2021/12/03 01:41:06;;;;;;;0.60;0.57;;;3.10;99.90;;;;;;4927830;29;20420;-78
2021/12/03 01:43:32;;;;;;;0.30;0.30;;;3.10;99.90;;;;;;4928831;29;20059;-78
2021/12/03 01:46:01;;;;;;;1.17;0.30;;;3.10;99.90;;;;;;4928494;29;20052;-78
2021/12/03 01:48:27;;;;;;;0.10;0.10;;;3.20;99.90;;;;;;4927864;29;20052;-78
2021/12/03 01:50:54;;;;;;;0.93;0.80;;;3.20;99.90;;;;;;4911608;29;20051;-78
2021/12/03 01:53:23;;;;;;;0.30;0.30;;;3.20;99.90;;;;;;4929409;29;20054;-78
2021/12/03 01:55:50;;;;;;;1.27;1.17;;;3.20;99.90;;;;;;4911129;29;20048;-78
2021/12/03 01:58:16;;;;;;;0.20;0.20;;;3.20;99.90;;;;;;4928263;29;20044;-78
2021/12/03 02:01:00;;;;;;;0.20;0.20;;;3.20;99.90;;;;;;4928451;29;20128;-78
2021/12/03 02:03:29;;;;;;;0.50;0.37;;;3.20;99.90;;;;;;4911451;29;20044;-78
2021/12/03 02:05:56;;;;;;;0.60;0.60;;;3.20;99.90;;;;;;4928621;29;20050;-78
2021/12/03 02:08:22;;;;;;;0.33;0.33;;;3.20;99.90;;;;;;4928556;29;20527;-78
2021/12/03 02:10:49;;;;;;;3.80;0.90;;;3.20;99.90;;;;;;4927121;29;20755;-78
2021/12/03 02:13:15;;;;;;;0.20;0.20;;;3.20;99.90;;;;;;4927517;29;20044;-78
2021/12/03 02:15:43;;;;;;;1.83;1.07;;;3.20;99.90;;;;;;4928030;29;20061;-78
2021/12/03 02:18:10;;;;;;;0.20;0.20;;;3.20;99.90;;;;;;4928013;29;20050;-78
2021/12/03 02:20:44;;;;;;;11.63;0.83;;;3.20;99.90;;;;;;4927388;29;20539;-78
2021/12/03 02:23:11;;;;;;;3.00;0.97;;;3.20;99.90;;;;;;4927882;29;20461;-78
2021/12/03 02:25:36;;;;;;;1.50;0.97;;;3.20;99.90;;;;;;4926908;29;20090;-78
2021/12/03 02:28:02;;;;;;;5.30;0.60;;;3.20;99.90;;;;;;4928691;29;20083;-78
2021/12/03 02:30:28;;;;;;;0.47;0.47;;;3.20;99.90;;;;;;4947382;28;20043;-78
2021/12/03 02:32:54;;;;;;;0.10;0.10;;;3.20;99.90;;;;;;4946358;29;20039;-78
2021/12/03 02:35:23;;;;;;;2.77;0.20;;;3.20;99.90;;;;;;4947520;29;20130;-78
2021/12/03 02:37:49;;;;;;;0.20;0.20;;;3.20;99.90;;;;;;4961868;28;20563;-78
2021/12/03 02:40:16;;;;;;;11.53;1.27;;;3.20;99.90;;;;;;4946095;29;20717;-78
2021/12/03 02:42:43;;;;;;;0.60;0.60;;;3.20;99.90;;;;;;4945785;28;20503;-78
2021/12/03 02:45:10;;;;;;;0.50;0.50;;;3.20;99.90;;;;;;4946937;29;20054;-78
2021/12/03 02:47:36;;;;;;;1.00;0.67;;;3.20;99.90;;;;;;4946838;29;20051;-78
2021/12/03 02:50:04;;;;;;;0.30;0.30;;;3.30;99.90;;;;;;4928919;29;20054;-78
2021/12/03 02:52:30;;;;;;;1.40;0.37;;;3.30;99.90;;;;;;4946661;29;20142;-78
2021/12/03 02:54:55;;;;;;;0.57;0.57;;;3.30;99.90;;;;;;4946205;28;20103;-78
2021/12/03 02:57:21;;;;;;;0.20;0.20;;;3.30;99.90;;;;;;4945791;29;20055;-78
2021/12/03 02:59:46;;;;;;;6.67;0.60;;;3.30;99.90;;;;;;4946911;29;20054;-78
2021/12/03 03:02:12;;;;;;;1.00;1.00;;;3.30;99.90;;;;;;4946478;29;20047;-78
2021/12/03 03:04:38;;;;;;;2.03;0.87;;;3.30;99.90;;;;;;4929579;29;20047;-78
2021/12/03 03:07:04;;;;;;;0.30;0.30;;;3.30;99.90;;;;;;4944762;29;20035;-78
2021/12/03 03:09:31;;;;;;;2.33;0.47;;;3.30;99.90;;;;;;4946433;29;20046;-78
2021/12/03 03:11:58;;;;;;;0.40;0.40;;;3.30;99.90;;;;;;4945076;29;20220;-78
2021/12/03 03:14:23;;;;;;;0.67;0.67;;;3.30;99.90;;;;;;4928739;29;20078;-78
2021/12/03 03:16:51;;;;;;;0.87;0.87;;;3.40;99.90;;;;;;4946958;29;20126;-78
2021/12/03 03:19:19;;;;;;;0.47;0.47;;;3.40;99.90;;;;;;4929383;29;20047;-78
2021/12/03 03:21:47;;;;;;;0.30;0.30;;;3.40;99.90;;;;;;4945995;29;20043;-78
2021/12/03 03:24:13;;;;;;;0.50;0.50;;;3.40;99.90;;;;;;4945570;28;20053;-78
2021/12/03 03:26:43;;;;;;;0.77;0.77;;;3.40;99.90;;;;;;4945295;29;20031;-78
2021/12/03 03:29:11;;;;;;;1.03;0.77;;;3.40;99.90;;;;;;4935875;29;20435;-78
2021/12/03 03:31:38;;;;;;;1.90;1.27;;;3.40;99.90;;;;;;4927065;29;20058;-78
2021/12/03 03:34:04;;;;;;;0.30;0.30;;;3.40;99.90;;;;;;4927074;29;20098;-78
2021/12/03 03:36:39;;;;;;;1.30;1.20;;;3.40;99.90;;;;;;4926803;29;20079;-78
2021/12/03 03:39:10;;;;;;;0.23;0.23;;;3.40;99.90;;;;;;4926895;29;20048;-78
2021/12/03 03:41:36;;;;;;;0.40;0.40;;;3.40;99.90;;;;;;4909210;29;20079;-78
2021/12/03 03:44:02;;;;;;;1.60;0.70;;;3.40;99.90;;;;;;4926351;29;20090;-78
2021/12/03 03:46:28;;;;;;;0.73;0.73;;;3.40;99.90;;;;;;4909606;29;20107;-78
2021/12/03 03:48:53;;;;;;;0.20;0.20;;;3.40;99.90;;;;;;4926434;29;20051;-78
2021/12/03 03:51:19;;;;;;;0.80;0.80;;;3.40;99.90;;;;;;4926978;29;20130;-78
2021/12/03 03:53:45;;;;;;;1.00;1.00;;;3.40;99.90;;;;;;4926751;29;20047;-78
2021/12/03 03:56:13;;;;;;;22.43;1.03;;;3.40;99.90;;;;;;4908711;29;20051;-78
2021/12/03 03:58:41;;;;;;;1.20;1.20;;;3.40;99.90;;;;;;4926571;29;20047;-78
2021/12/03 04:01:11;;;;;;;1.07;0.97;;;3.40;99.90;;;;;;4926225;29;20043;-78
2021/12/03 04:03:37;;;;;;;1.57;1.47;;;3.50;99.90;;;;;;4918895;29;20115;-78
2021/12/03 04:06:03;;;;;;;1.23;1.17;;;3.50;99.90;;;;;;4926233;29;20051;-78
2021/12/03 04:08:29;;;;;;;6.93;1.47;;;3.50;99.90;;;;;;4894017;29;20052;-78
2021/12/03 04:10:58;;;;;;;8.13;1.53;;;3.50;99.90;;;;;;4908450;29;20044;-78
2021/12/03 04:13:24;;;;;;;0.67;0.67;;;3.40;99.90;;;;;;4926564;29;20126;-78
2021/12/03 04:15:50;;;;;;;0.37;0.37;;;3.50;99.90;;;;;;4926920;29;20461;-78
2021/12/03 04:18:16;;;;;;;1.97;1.80;;;3.50;99.90;;;;;;4926932;29;20111;-78
2021/12/03 04:20:42;;;;;;;0.90;0.70;;;3.50;99.90;;;;;;4926250;29;20500;-78
2021/12/03 04:23:08;;;;;;;7.50;2.07;;;3.50;99.90;;;;;;4909088;29;20038;-78
2021/12/03 04:25:34;;;;;;;2.20;0.80;;;3.50;99.90;;;;;;4925791;29;20047;-78
2021/12/03 04:28:01;;;;;;;7.27;2.03;;;3.50;99.90;;;;;;4927028;29;20083;-78
2021/12/03 04:30:29;;;;;;;1.43;1.23;;;3.50;99.90;;;;;;4945573;28;20053;-78
2021/12/03 04:32:55;;;;;;;0.97;0.97;;;3.50;99.90;;;;;;4945126;29;20039;-78
2021/12/03 04:35:22;;;;;;;0.33;0.33;;;3.50;99.90;;;;;;4945955;29;20045;-78
2021/12/03 04:37:47;;;;;;;4.60;1.30;;;3.50;99.90;;;;;;4945788;28;20062;-78
2021/12/03 04:40:14;;;;;;;1.03;1.03;;;3.50;99.90;;;;;;4958780;28;20384;-78
2021/12/03 04:42:41;;;;;;;1.03;1.03;;;3.50;99.90;;;;;;4928254;29;20463;-78
2021/12/03 04:45:08;;;;;;;2.50;1.53;;;3.50;99.90;;;;;;4928210;29;20047;-78
2021/12/03 04:47:34;;;;;;;1.50;1.40;;;3.60;99.90;;;;;;4945304;29;20062;-78
2021/12/03 04:50:00;;;;;;;2.27;1.23;;;3.60;99.90;;;;;;4945037;28;20047;-78
2021/12/03 04:52:26;;;;;;;1.80;1.00;;;3.60;99.90;;;;;;4945470;28;20396;-78
2021/12/03 04:54:52;;;;;;;1.30;1.20;;;3.60;99.90;;;;;;4944196;29;20505;-78
2021/12/03 04:57:18;;;;;;;1.43;1.33;;;3.60;99.90;;;;;;4945573;28;20122;-78
2021/12/03 04:59:44;;;;;;;0.77;0.77;;;3.60;99.90;;;;;;4945345;28;20058;-78
2021/12/03 05:02:10;;;;;;;2.43;1.57;;;3.60;99.90;;;;;;4944749;28;20391;-78
2021/12/03 05:04:37;;;;;;;4.80;1.90;;;3.60;99.90;;;;;;4945820;28;20051;-77
2021/12/03 05:09:37;;;;;;;4.83;1.00;;;3.60;99.90;;;;;;4949120;29;20051;-78
2021/12/03 05:12:04;;;;;;;0.30;0.30;;;3.70;99.90;;;;;;4930725;29;20455;-78
2021/12/03 05:14:30;;;;;;;1.93;0.60;;;3.70;99.90;;;;;;4948242;28;20055;-78
2021/12/03 05:16:56;;;;;;;0.90;0.83;;;3.70;99.90;;;;;;4947993;29;20066;-78
2021/12/03 05:19:22;;;;;;;2.93;1.20;;;3.70;99.90;;;;;;4947306;28;20456;-78
2021/12/03 05:21:48;;;;;;;2.20;2.00;;;3.70;99.90;;;;;;4948769;28;20051;-78
2021/12/03 05:24:14;;;;;;;0.30;0.30;;;3.70;99.90;;;;;;4948331;28;20110;-78
2021/12/03 05:26:41;;;;;;;0.20;0.20;;;3.70;99.90;;;;;;4930258;29;20090;-78
2021/12/03 05:29:08;;;;;;;0.87;0.43;;;3.70;99.90;;;;;;4938593;28;20078;-78
2021/12/03 05:31:35;;;;;;;1.30;0.83;;;3.70;99.90;;;;;;4928849;29;20044;-78
2021/12/03 05:34:01;;;;;;;0.40;0.40;;;3.70;99.90;;;;;;4928903;29;20413;-78
2021/12/03 05:36:27;;;;;;;0.83;0.83;;;3.70;99.90;;;;;;4929044;29;20048;-78
2021/12/03 05:38:52;;;;;;;0.63;0.63;;;3.70;99.90;;;;;;4929033;29;20393;-78
2021/12/03 05:41:18;;;;;;;1.83;0.70;;;3.80;99.90;;;;;;4928328;29;20075;-78
2021/12/03 05:43:44;;;;;;;0.90;0.67;;;3.70;99.90;;;;;;4911783;29;20051;-78
2021/12/03 05:46:09;;;;;;;7.20;0.40;;;3.80;99.90;;;;;;4928563;29;20477;-78
2021/12/03 05:48:35;;;;;;;0.70;0.70;;;3.80;99.90;;;;;;4928826;29;20050;-78
2021/12/03 05:51:01;;;;;;;2.47;0.83;;;3.80;99.90;;;;;;4928811;29;20052;-78
2021/12/03 05:53:26;;;;;;;1.33;1.23;;;3.80;99.90;;;;;;4928563;29;20085;-78
2021/12/03 05:55:52;;;;;;;0.40;0.30;;;3.80;99.90;;;;;;4927361;29;20036;-78
2021/12/03 05:58:18;;;;;;;2.47;1.13;;;3.80;99.90;;;;;;4912300;29;20051;-78
2021/12/03 06:00:44;;;;;;;0.50;0.50;;;3.80;99.90;;;;;;4928506;29;20497;-78
2021/12/03 06:03:11;;;;;;;0.70;0.70;;;3.80;99.90;;;;;;4927010;29;20066;-78
2021/12/03 06:05:39;;;;;;;1.60;1.50;;;3.80;99.90;;;;;;4911418;29;20097;-78
2021/12/03 06:08:04;;;;;;;0.43;0.43;;;3.90;99.90;;;;;;4927988;29;20040;-78
2021/12/03 06:10:30;;;;;;;0.77;0.77;;;3.90;99.90;;;;;;4927665;29;20515;-78
2021/12/03 06:12:56;;;;;;;8.40;2.87;;;3.90;99.90;;;;;;4928110;29;20062;-78
2021/12/03 06:15:22;;;;;;;1.00;1.00;;;3.90;99.90;;;;;;4928286;29;20059;-78
2021/12/03 06:17:48;;;;;;;3.60;0.60;;;3.90;99.90;;;;;;4927646;29;20591;-78
2021/12/03 06:20:16;;;;;;;14.07;1.43;;;3.90;99.90;;;;;;4910557;29;20047;-78
2021/12/03 06:22:41;;;;;;;0.50;0.50;;;3.90;99.90;;;;;;4928827;29;20047;-78
2021/12/03 06:25:09;;;;;;;0.50;0.50;;;3.90;99.90;;;;;;4926992;29;20503;-78
2021/12/03 06:27:36;;;;;;;2.53;0.93;;;3.90;99.90;;;;;;4927969;29;20103;-78
2021/12/03 06:30:03;;;;;;;2.17;1.23;;;3.90;99.90;;;;;;4927308;29;20047;-78
2021/12/03 06:32:28;;;;;;;5.20;2.20;;;3.90;99.90;;;;;;4947311;29;20046;-78
2021/12/03 06:34:54;;;;;;;0.70;0.70;;;3.90;99.90;;;;;;4946996;29;20059;-78
2021/12/03 06:37:20;;;;;;;5.50;1.20;;;3.90;99.90;;;;;;4930315;29;20074;-78
2021/12/03 06:39:45;;;;;;;0.47;0.47;;;3.90;99.90;;;;;;4929166;29;20047;-78
2021/12/03 06:42:11;;;;;;;0.60;0.60;;;3.90;99.90;;;;;;4946636;28;20062;-78
2021/12/03 06:44:36;;;;;;;0.60;0.60;;;3.90;99.90;;;;;;4947058;28;20047;-78
2021/12/03 06:47:03;;;;;;;2.80;1.40;;;3.90;99.90;;;;;;4945890;28;20122;-78
2021/12/03 06:49:30;;;;;;;0.57;0.57;;;3.90;99.90;;;;;;4946432;29;20067;-79
2021/12/03 06:52:01;;;;;;;1.07;0.60;;;4.00;99.90;;;;;;4946529;29;20061;-80
2021/12/03 06:54:30;;;;;;;1.02;1.02;;;3.90;99.90;;;;;;4946231;29;20054;-80
2021/12/03 06:56:57;;;;;;;1.63;1.53;;;3.90;99.90;;;;;;4913407;29;20061;-78
2021/12/03 06:59:24;;;;;;;1.50;1.40;;;4.00;99.90;;;;;;4929404;29;20089;-78
2021/12/03 07:01:51;;;;;;;1.67;1.57;;;4.00;99.90;;;;;;4961671;28;20048;-78
2021/12/03 07:04:18;;;;;;;1.13;1.13;;;4.00;99.90;;;;;;4945866;28;20392;-78
2021/12/03 07:06:44;;;;;;;1.20;1.13;;;4.00;99.90;;;;;;4946179;29;20039;-78
2021/12/03 07:09:10;;;;;;;2.90;2.13;;;4.00;99.90;;;;;;4960328;28;20039;-79
2021/12/03 07:11:35;;;;;;;5.77;1.43;;;4.00;99.90;;;;;;4927007;28;20027;-79
2021/12/03 07:14:01;;;;;;;4.80;1.07;;;4.00;99.90;;;;;;4912267;29;20066;-79
2021/12/03 07:16:27;;;;;;;1.83;1.73;;;4.00;99.90;;;;;;4961132;28;20460;-79
2021/12/03 07:18:53;;;;;;;1.53;1.43;;;4.00;99.90;;;;;;4945480;28;20095;-79
2021/12/03 07:21:19;;;;;;;2.07;1.87;;;4.00;99.90;;;;;;4946022;28;20090;-79
2021/12/03 07:23:45;;;;;;;1.80;1.60;;;4.00;99.90;;;;;;4945528;28;20078;-79
2021/12/03 07:26:11;;;;;;;2.00;1.80;;;4.00;99.90;;;;;;4943728;28;20101;-79
2021/12/03 07:28:36;;;;;;;0.73;0.73;;;4.10;99.90;;;;;;4923013;29;20044;-79
2021/12/03 07:31:02;;;;;;;2.00;0.90;;;4.10;99.90;;;;;;4909496;29;20044;-79
2021/12/03 07:33:30;;;;;;;5.37;1.63;;;4.10;99.90;;;;;;4925374;29;20191;-79
2021/12/03 07:35:56;;;;;;;0.73;0.63;;;4.10;99.90;;;;;;4908991;29;20059;-79
2021/12/03 07:38:22;;;;;;;2.43;2.03;;;4.10;99.90;;;;;;4926170;29;20501;-79
2021/12/03 07:40:49;;;;;;;6.80;1.53;;;4.10;99.90;;;;;;4926203;29;20047;-79
2021/12/03 07:43:16;;;;;;;1.20;1.10;;;4.10;99.90;;;;;;4925961;29;20035;-80
2021/12/03 07:45:43;;;;;;;3.33;1.87;;;4.10;99.90;;;;;;4927086;29;20055;-80
2021/12/03 07:48:09;;;;;;;8.73;2.00;;;4.10;99.90;;;;;;4926244;29;20493;-80
2021/12/03 07:50:36;;;;;;;5.97;1.30;;;4.20;99.90;;;;;;4926360;29;20040;-81
2021/12/03 07:53:06;;;;;;;9.63;1.43;;;4.20;99.90;;;;;;4909236;29;20054;-79
2021/12/03 07:55:32;;;;;;;4.33;1.23;;;4.20;99.90;;;;;;4908215;29;20054;-79
2021/12/03 07:57:57;;;;;;;1.80;1.67;;;4.20;99.90;;;;;;4907834;29;20054;-79
2021/12/03 08:00:23;;;;;;;6.47;1.10;;;4.20;99.90;;;;;;4908746;29;20484;-79
2021/12/03 08:02:49;;;;;;;0.83;0.83;;;4.20;99.90;;;;;;4926723;29;20036;-79
2021/12/03 08:05:15;;;;;;;1.63;1.00;;;4.20;99.90;;;;;;4926149;29;20114;-79
2021/12/03 08:07:45;;;;;;;3.90;1.60;;;4.20;99.90;;;;;;4925722;29;20498;-79
2021/12/03 08:10:12;;;;;;;0.60;0.53;;;4.20;99.90;;;;;;4907721;29;20051;-79
2021/12/03 08:12:43;;;;;;;6.80;1.30;;;4.20;99.90;;;;;;4908844;29;20043;-79
2021/12/03 08:15:09;;;;;;;5.10;1.70;;;4.20;99.90;;;;;;4925663;29;20059;-79
2021/12/03 08:17:36;;;;;;;1.30;1.20;;;4.20;99.90;;;;;;4925616;29;20070;-79
2021/12/03 08:20:03;;;;;;;10.17;1.43;;;4.30;99.90;;;;;;4924908;29;20420;-79
2021/12/03 08:22:29;;;;;;;0.50;0.50;;;4.30;99.90;;;;;;4924314;29;20111;-79
2021/12/03 08:24:54;;;;;;;0.37;0.37;;;4.30;99.90;;;;;;4924495;29;20043;-79
2021/12/03 08:27:20;;;;;;;12.27;2.03;;;4.30;99.90;;;;;;4909112;29;20519;-79
2021/12/03 08:29:46;;;;;;;1.60;1.50;;;4.30;99.90;;;;;;4940563;29;20503;-79
2021/12/03 08:32:11;;;;;;;2.43;2.07;;;4.30;99.90;;;;;;4927424;29;20042;-79
2021/12/03 08:34:38;;;;;;;1.37;0.83;;;4.30;99.90;;;;;;4943203;28;20051;-79
2021/12/03 08:37:06;;;;;;;9.23;0.70;;;4.30;99.90;;;;;;4944523;28;20067;-79
2021/12/03 08:39:32;;;;;;;1.43;1.33;;;4.30;99.90;;;;;;4944227;28;20089;-79
2021/12/03 08:41:58;;;;;;;0.40;0.40;;;4.40;99.90;;;;;;4947985;29;20039;-79
2021/12/03 08:44:24;;;;;;;1.37;1.17;;;4.40;99.90;;;;;;4963231;28;20043;-79
2021/12/03 08:46:58;;;;;;;2.30;1.10;;;4.40;99.90;;;;;;4948992;29;20086;-79
2021/12/03 08:49:30;;;;;;;7.67;0.80;;;4.40;99.90;;;;;;4948226;29;20188;-79
2021/12/03 08:57:21;;;;;;;0.73;0.73;;;4.40;99.90;;;;;;4948486;28;20122;-79
2021/12/03 08:59:46;;;;;;;4.63;1.23;;;4.40;99.90;;;;;;4930586;29;20047;-78
2021/12/03 09:02:12;;;;;;;5.00;1.45;;;4.40;99.90;;;;;;4947918;28;20039;-79
2021/12/03 09:04:38;;;;;;;0.20;0.20;;;4.40;99.90;;;;;;4948222;28;20047;-79
2021/12/03 09:07:04;;;;;;;0.73;0.73;;;4.40;99.90;;;;;;4930669;29;20035;-79
2021/12/03 09:09:31;;;;;;;2.00;1.17;;;4.50;99.90;;;;;;4947486;29;20162;-79
2021/12/03 09:11:57;;;;;;;0.52;0.50;;;4.40;99.90;;;;;;4947550;29;20043;-79
2021/12/03 09:16:55;;;;;;;3.33;1.73;;;4.50;99.90;;;;;;4948129;28;20079;-79
2021/12/03 09:19:30;;;;;;;2.40;1.13;;;4.50;99.90;;;;;;4930567;29;20146;-78
2021/12/03 09:21:56;;;;;;;9.07;2.22;;;4.50;99.90;;;;;;4929840;29;20056;-79
2021/12/03 09:24:29;;;;;;;5.83;1.73;;;4.60;99.90;;;;;;4946997;29;20470;-79
2021/12/03 09:26:55;;;;;;;1.40;1.17;;;4.60;99.90;;;;;;4947408;28;20063;-79
2021/12/03 09:29:33;;;;;;;1.13;1.13;;;4.50;99.90;;;;;;4935827;29;20044;-78
2021/12/03 09:31:59;;;;;;;0.50;0.50;;;4.60;99.90;;;;;;4928362;29;20135;-78
2021/12/03 09:34:28;;;;;;;0.85;0.85;;;4.60;99.90;;;;;;4928171;29;20040;-79
2021/12/03 09:36:54;;;;;;;1.02;0.77;;;4.60;99.90;;;;;;4928148;29;20044;-79
2021/12/03 09:39:22;;;;;;;1.75;0.85;;;4.60;99.90;;;;;;4927317;29;20470;-79
2021/12/03 09:41:50;;;;;;;5.00;0.80;;;4.60;99.90;;;;;;4911787;29;20429;-79
2021/12/03 09:44:16;;;;;;;1.63;1.53;;;4.60;99.90;;;;;;4911307;29;20567;-79
2021/12/03 09:46:43;;;;;;;5.33;1.00;;;4.60;99.90;;;;;;4928257;29;20540;-79
2021/12/03 09:49:29;;;;;;;0.65;0.65;;;4.70;99.90;;;;;;4928000;29;20036;-79
2021/12/03 09:52:07;;;;;;;0.63;0.63;;;4.70;99.90;;;;;;4910718;29;20066;-79
2021/12/03 09:54:41;;;;;;;7.13;1.53;;;4.70;99.90;;;;;;4926929;29;20047;-79
2021/12/03 09:57:17;;;;;;;2.42;1.67;;;4.70;99.90;;;;;;4928203;29;20054;-79
2021/12/03 10:02:32;;;;;;;1.27;0.73;;;4.70;99.90;;;;;;4927564;29;20058;-79
2021/12/03 10:13:34;;;;;;;0.63;0.63;;;4.80;99.90;;;;;;4910996;29;20479;-79
2021/12/03 10:24:36;;;;;;;1.75;1.45;;;4.80;99.90;;;;;;4893041;29;20403;-79
2021/12/03 10:41:31;;;;;;;19.65;1.75;;;4.80;99.90;;;;;;4928390;29;20055;-79
2021/12/03 10:55:09;;;;;;;2.50;2.30;;;4.70;99.90;;;;;;4928684;29;20681;-86
2021/12/03 11:03:31;;;;;;;1.25;1.25;;;4.70;99.90;;;;;;4946085;28;20054;-86
2021/12/03 11:06:38;;;;;;;1.33;1.08;;;4.70;99.90;;;;;;4929122;29;20058;-85
2021/12/03 11:25:44;;;;;;;2.53;1.75;;;4.60;99.90;;;;;;4928716;29;20504;-85
2021/12/03 11:36:40;;;;;;;2.60;1.05;;;4.60;99.90;;;;;;4909423;29;20103;-78
2021/12/03 11:43:01;;;;;;;1.87;1.77;;;4.60;99.90;;;;;;4909472;29;20093;-79
2021/12/03 11:45:46;;;;;;;2.00;1.47;;;4.60;99.90;;;;;;4909502;29;20058;-78
2021/12/03 13:08:45;;;;;;;3.15;2.45;;;4.70;99.90;;;;;;4950259;28;20097;-91
2021/12/03 13:11:56;;;;;;;4.63;2.63;;;4.70;99.90;;;;;;4950261;28;20053;-91
2021/12/03 13:19:57;;;;;;;1.93;1.83;;;4.80;99.90;;;;;;4953148;28;20047;-82
2021/12/03 13:22:51;;;;;;;1.13;1.13;;;4.70;99.90;;;;;;4948795;28;20423;-89
2021/12/03 13:28:40;;;;;;;1.80;1.70;;;4.70;99.90;;;;;;4960784;28;20082;-85
2021/12/03 14:09:56;;;;;;;1.67;1.48;;;4.80;99.90;;;;;;4913138;28;20138;-87
2021/12/03 14:21:49;;;;;;;13.13;2.50;;;4.80;99.90;;;;;;4938493;28;20570;-79
2021/12/03 14:28:31;;;;;;;3.60;2.33;;;4.80;99.90;;;;;;4945938;28;20053;-79
2021/12/03 14:33:42;;;;;;;4.05;2.53;;;4.80;99.90;;;;;;4927039;29;20051;-78
2021/12/03 14:35:50;;;;;;;1.63;1.52;;;4.80;99.90;;;;;;4924456;29;20099;-78
2021/12/03 14:46:02;;;;;;;4.15;3.33;;;4.80;99.90;;;;;;4946474;28;20043;-78
2021/12/03 14:48:38;;;;;;;3.47;2.40;;;4.80;99.90;;;;;;4929632;29;20047;-79
2021/12/03 14:56:16;;;;;;;1.93;1.77;;;4.80;99.90;;;;;;4953698;28;20047;-80
2021/12/03 14:58:49;;;;;;;3.40;3.20;;;4.80;99.90;;;;;;4936274;29;20055;-80
2021/12/03 15:07:12;;;;;;;3.83;2.85;;;4.90;99.90;;;;;;4944709;28;20059;-81
2021/12/03 15:09:40;;;;;;;3.88;3.10;;;4.90;99.90;;;;;;4943055;28;20047;-77
2021/12/03 15:12:39;;;;;;;4.17;3.87;;;4.80;99.90;;;;;;4945805;29;20046;-77
2021/12/03 15:23:33;;;;;;;2.80;2.63;;;4.90;99.90;;;;;;4927753;29;20118;-78
2021/12/03 15:26:12;;;;;;;7.72;2.55;;;4.90;99.90;;;;;;4928603;29;20090;-79
2021/12/03 15:37:09;;;;;;;3.40;2.97;;;4.90;99.90;;;;;;4919242;29;20492;-79
2021/12/03 16:04:13;;;;;;;3.90;2.00;;;5.00;99.90;;;;;;4945819;28;20074;-79
2021/12/03 16:15:15;;;;;;;3.47;3.20;;;5.00;99.90;;;;;;4945152;29;20062;-78
2021/12/03 16:18:12;;;;;;;6.70;5.38;;;5.00;99.90;;;;;;4945816;29;20074;-79
2021/12/03 16:20:53;;;;;;;3.28;3.08;;;5.00;99.90;;;;;;4925001;28;20118;-79
2021/12/03 16:23:50;;;;;;;5.03;3.17;;;5.00;99.90;;;;;;4948389;28;20047;-78
2021/12/03 16:26:47;;;;;;;4.43;4.10;;;5.10;99.90;;;;;;4947572;28;20051;-79
2021/12/03 16:53:47;;;;;;;3.42;3.13;;;5.10;99.90;;;;;;4927244;29;20061;-79
2021/12/03 16:58:42;;;;;;;4.57;2.58;;;5.10;99.90;;;;;;4944726;29;20051;-79
2021/12/03 17:01:14;;;;;;;3.05;2.85;;;5.20;99.90;;;;;;4946153;28;20094;-80
2021/12/03 17:03:47;;;;;;;4.03;3.72;;;5.20;99.90;;;;;;4939690;29;20043;-80
2021/12/03 17:07:15;;;;;;;3.45;3.20;;;5.20;99.90;;;;;;4935955;29;20077;-80
2021/12/03 17:09:45;;;;;;;3.03;2.90;;;5.20;99.90;;;;;;4937131;29;20132;-79
2021/12/03 17:23:26;;;;;;;3.15;2.83;;;5.20;99.90;;;;;;4928046;29;20496;-81
2021/12/03 17:47:22;;;;;;;3.03;2.92;;;5.20;99.90;;;;;;4945593;29;20563;-80
2021/12/03 17:49:55;;;;;;;7.80;3.65;;;5.30;99.90;;;;;;4944732;29;20043;-81
2021/12/03 17:58:11;;;;;;;4.55;3.75;;;5.30;99.90;;;;;;4924144;28;20054;-84
2021/12/03 18:03:37;;;;;;;3.78;3.58;;;5.30;99.90;;;;;;4929920;28;20496;-80
2021/12/03 18:48:22;;;;;;;4.22;3.92;;;5.40;99.90;;;;;;4957379;28;20101;-85
2021/12/03 18:53:46;;;;;;;4.97;4.53;;;5.50;99.90;;;;;;4954641;28;20048;-90
2021/12/03 18:56:23;;;;;;;7.00;6.45;;;5.50;99.90;;;;;;4966860;28;20079;-91
2021/12/03 18:59:09;;;;;;;5.07;4.72;;;5.50;99.90;;;;;;4961484;28;20487;-86
2021/12/03 19:01:36;;;;;;;4.80;4.50;;;5.50;99.90;;;;;;4957223;28;20046;-84
2021/12/03 19:04:14;;;;;;;3.55;3.35;;;5.50;99.90;;;;;;4945709;28;20101;-81
2021/12/03 19:07:02;;;;;;;7.05;5.68;;;5.50;99.90;;;;;;4971408;28;20407;-92
2021/12/03 19:09:45;;;;;;;6.65;6.00;;;5.50;99.90;;;;;;4962219;28;20060;-85
2021/12/03 19:12:24;;;;;;;5.38;5.07;;;5.50;99.90;;;;;;4979813;28;20414;-89
2021/12/03 19:14:52;;;;;;;7.32;6.15;;;5.50;99.90;;;;;;4961458;28;20745;-90
2021/12/03 19:17:19;;;;;;;5.13;4.82;;;5.50;99.90;;;;;;4943754;28;20042;-88
2021/12/03 19:19:46;;;;;;;6.63;6.10;;;5.50;99.90;;;;;;4963206;28;20104;-85
2021/12/03 19:22:17;;;;;;;9.98;5.68;;;5.50;99.90;;;;;;4979692;28;20160;-86
2021/12/03 19:24:43;;;;;;;6.57;4.88;;;5.50;99.90;;;;;;4982863;28;20049;-84
2021/12/03 19:27:11;;;;;;;7.20;6.53;;;5.60;99.90;;;;;;4977796;28;20042;-85
2021/12/03 19:29:54;;;;;;;8.50;6.70;;;5.50;99.90;;;;;;4965563;28;20046;-88
2021/12/03 19:32:24;;;;;;;7.72;6.97;;;5.50;99.90;;;;;;4965740;28;20462;-86
2021/12/03 19:34:50;;;;;;;10.93;8.77;;;5.60;99.90;;;;;;4978396;28;20160;-83
2021/12/03 19:37:16;;;;;;;5.68;5.28;;;5.60;99.90;;;;;;4980291;28;20073;-84
2021/12/03 19:40:25;;;;;;;9.25;8.57;;;5.50;99.90;;;;;;4980105;28;20078;-92
2021/12/03 19:43:17;;;;;;;11.02;9.90;;;5.60;99.90;;;;;;4956410;28;20491;-90
2021/12/03 19:46:07;;;;;;;10.07;9.27;;;5.60;99.90;;;;;;4956619;28;20550;-92
2021/12/03 19:49:01;;;;;;;13.57;9.50;;;5.60;99.90;;;;;;4964045;28;20108;-87
2021/12/03 19:51:29;;;;;;;11.20;10.13;;;5.60;99.90;;;;;;4966080;28;20054;-82
2021/12/03 19:56:23;;;;;;;9.00;8.40;;;5.60;99.90;;;;;;4984388;28;20050;-81
2021/12/03 19:58:49;;;;;;;9.88;9.13;;;5.60;99.90;;;;;;4984374;28;20050;-81
2021/12/03 20:01:15;;;;;;;11.10;10.10;;;5.60;99.90;;;;;;4983507;28;20054;-81
2021/12/03 20:03:40;;;;;;;10.65;9.50;;;5.60;99.90;;;;;;4984412;28;20662;-81